Silverhill, Alabama
Current Conditions -  °F | °C
As of 6:55 PM on Tuesday 21 Oct 2014 (Local Time) from KCQF Reporting Station
Clear Clear  
Wind Chill: 66°   Ceiling: Unl
Heat Index: 66°   Visibility: 10mi
Dew Point: 54°   Wind: 3mph
Humidity: 64%   Direction: 340°NNW
Pressure: 29.97"   Gusts: NA
Location:  30.55°N, 87.75°W
Report Text: KCQF 212355Z AUTO 34003KT 10SM CLR 19/12 A2997 RMK AO2
Loading
Personal Weather Stations






























Interactive Weather Map
Tropical Storm Tracking
New forecast layout! Learn more

10-Day Weather Forecast

Advertisements
Track Severe Weather on mobile